Time;durP1;ratioP1;P1;durP2;ratioP2;P2;SDS_P1;SDS_P2;PMS_P1;PMS_P2;Temp;Humidity;BMP_temperature;BMP_pressure;BME280_temperature;BME280_humidity;BME280_pressure;Samples;Min_cycle;Max_cycle;Signal;HPM_P1;HPM_P2
2021/07/08 00:02:14;;;;;;;5.87;2.03;;;20.20;77.70;;;;;;10455562;28;20224;-29
2021/07/08 00:07:36;;;;;;;5.10;2.20;;;20.30;77.40;;;;;;10455009;28;20392;-29
2021/07/08 00:13:00;;;;;;;6.23;2.30;;;20.30;77.00;;;;;;10455293;28;20221;-29
2021/07/08 00:18:26;;;;;;;7.53;2.40;;;20.20;76.80;;;;;;10455133;28;20204;-28
2021/07/08 00:23:49;;;;;;;4.17;2.23;;;20.20;76.80;;;;;;10470880;28;20200;-27
2021/07/08 00:29:11;;;;;;;3.63;1.97;;;20.20;76.90;;;;;;10496199;28;20212;-31
2021/07/08 00:34:35;;;;;;;5.53;2.17;;;20.20;77.00;;;;;;10495769;28;20223;-29
2021/07/08 00:39:57;;;;;;;4.43;2.20;;;20.20;77.00;;;;;;10494860;28;20560;-29
2021/07/08 00:45:21;;;;;;;3.17;1.90;;;20.20;77.00;;;;;;10487807;28;20185;-30
2021/07/08 00:50:46;;;;;;;4.10;2.27;;;20.20;76.90;;;;;;10463294;28;20228;-29
2021/07/08 00:56:10;;;;;;;3.57;2.13;;;20.20;77.00;;;;;;10414144;28;20424;-27
2021/07/08 01:01:32;;;;;;;4.13;2.23;;;20.20;77.00;;;;;;10411063;28;20244;-29
2021/07/08 01:06:57;;;;;;;5.83;2.17;;;20.20;77.00;;;;;;10415057;28;20201;-27
2021/07/08 01:12:20;;;;;;;3.40;2.00;;;20.10;76.90;;;;;;10413040;28;20251;-29
2021/07/08 01:17:43;;;;;;;2.57;2.23;;;20.10;76.80;;;;;;10412056;28;20569;-30
2021/07/08 01:23:07;;;;;;;5.03;2.20;;;20.10;76.70;;;;;;10461424;28;20216;-27
2021/07/08 01:28:29;;;;;;;2.87;2.37;;;20.10;76.70;;;;;;10487348;28;20594;-27
2021/07/08 01:33:52;;;;;;;4.80;2.37;;;20.10;76.60;;;;;;10492797;28;20212;-29
2021/07/08 01:39:17;;;;;;;3.27;2.13;;;20.10;76.50;;;;;;10493419;28;20224;-27
2021/07/08 01:44:40;;;;;;;2.73;2.20;;;20.10;76.50;;;;;;10493008;28;20202;-27
2021/07/08 01:50:02;;;;;;;3.13;1.83;;;20.10;76.50;;;;;;10492499;28;20221;-27
2021/07/08 01:55:25;;;;;;;3.30;1.60;;;20.10;76.50;;;;;;10462195;28;20213;-27
2021/07/08 02:00:48;;;;;;;4.10;2.07;;;20.00;76.20;;;;;;10451268;28;20220;-27
2021/07/08 02:06:10;;;;;;;3.70;2.23;;;20.10;76.10;;;;;;10451192;28;20728;-27
2021/07/08 02:11:33;;;;;;;3.87;2.07;;;20.00;75.90;;;;;;10450366;28;20226;-27
2021/07/08 02:16:56;;;;;;;2.93;1.90;;;20.00;75.90;;;;;;10450997;28;20584;-30
2021/07/08 02:22:18;;;;;;;3.60;2.10;;;20.10;75.90;;;;;;10467778;28;20219;-28
2021/07/08 02:27:43;;;;;;;3.97;2.00;;;20.00;75.80;;;;;;10483835;28;20568;-27
2021/07/08 02:33:07;;;;;;;2.30;1.90;;;20.10;75.90;;;;;;10454542;28;20248;-27
2021/07/08 02:38:29;;;;;;;3.00;1.93;;;20.00;75.70;;;;;;10451541;28;20591;-28
2021/07/08 02:43:53;;;;;;;6.77;2.37;;;20.00;75.70;;;;;;10492873;28;20180;-28
2021/07/08 02:49:15;;;;;;;3.70;2.33;;;20.00;75.60;;;;;;10491756;28;20216;-27
2021/07/08 02:54:37;;;;;;;3.07;2.27;;;20.00;75.60;;;;;;10491029;28;20217;-27
2021/07/08 03:00:01;;;;;;;2.40;1.90;;;20.00;75.60;;;;;;10510032;28;20226;-27
2021/07/08 03:05:23;;;;;;;4.37;2.03;;;20.00;75.50;;;;;;10488397;28;20192;-28
2021/07/08 03:10:45;;;;;;;5.33;2.27;;;20.00;75.50;;;;;;10491443;28;20585;-29
2021/07/08 03:16:09;;;;;;;2.67;2.07;;;20.00;75.30;;;;;;10491499;28;20295;-28
2021/07/08 03:21:31;;;;;;;3.57;2.20;;;19.90;75.10;;;;;;10491291;28;20220;-30
2021/07/08 03:26:53;;;;;;;3.17;2.00;;;19.90;75.00;;;;;;10499981;28;20567;-27
2021/07/08 03:32:17;;;;;;;4.10;1.90;;;19.90;75.10;;;;;;10500273;28;20208;-27
2021/07/08 03:37:39;;;;;;;4.43;2.20;;;19.90;75.30;;;;;;10497751;28;20395;-27
2021/07/08 03:43:01;;;;;;;3.90;1.97;;;19.90;75.30;;;;;;10497338;28;20235;-28
2021/07/08 03:48:25;;;;;;;5.13;2.57;;;19.90;75.40;;;;;;10497760;28;20279;-28
2021/07/08 03:53:47;;;;;;;3.67;2.10;;;20.00;75.40;;;;;;10497972;28;20584;-30
2021/07/08 03:59:09;;;;;;;3.63;2.30;;;19.90;75.40;;;;;;10498081;28;20603;-28
2021/07/08 04:04:38;;;;;;;4.77;2.80;;;19.90;75.50;;;;;;10497613;28;20208;-27
2021/07/08 04:10:00;;;;;;;4.50;2.50;;;19.90;75.70;;;;;;10497214;28;20227;-30
2021/07/08 04:15:22;;;;;;;5.13;2.60;;;19.90;75.70;;;;;;10497563;28;20223;-28
2021/07/08 04:20:47;;;;;;;4.23;2.60;;;20.00;76.00;;;;;;10496880;28;20216;-30
2021/07/08 04:26:09;;;;;;;4.67;2.67;;;19.90;76.20;;;;;;10505667;28;20583;-30
2021/07/08 04:31:32;;;;;;;4.10;3.00;;;20.00;76.40;;;;;;10538831;28;20211;-31
2021/07/08 04:36:55;;;;;;;5.83;2.60;;;20.00;76.30;;;;;;10509413;28;20590;-29
2021/07/08 04:42:17;;;;;;;4.17;2.20;;;20.10;77.20;;;;;;10394044;22;20375;-26
2021/07/08 04:47:41;;;;;;;4.73;2.73;;;20.00;77.00;;;;;;10297792;28;20207;-26
2021/07/08 04:53:04;;;;;;;7.83;2.50;;;20.10;77.00;;;;;;10316362;28;20314;-27
2021/07/08 04:58:27;;;;;;;5.57;2.60;;;20.10;77.10;;;;;;10286120;28;20192;-26
2021/07/08 05:03:49;;;;;;;4.03;2.57;;;20.10;77.40;;;;;;10306581;28;20206;-27
2021/07/08 05:09:12;;;;;;;5.57;2.50;;;20.10;77.50;;;;;;10317549;28;20215;-26
2021/07/08 05:14:34;;;;;;;4.57;2.47;;;20.10;77.50;;;;;;10325080;28;20218;-28
2021/07/08 05:19:57;;;;;;;5.67;2.60;;;20.10;77.70;;;;;;10325399;28;20274;-27
2021/07/08 05:25:20;;;;;;;6.00;2.70;;;20.10;77.50;;;;;;10324855;28;20195;-27
2021/07/08 05:30:42;;;;;;;3.93;2.53;;;20.10;77.40;;;;;;10324974;28;20211;-24
2021/07/08 05:36:05;;;;;;;4.20;2.70;;;20.10;77.50;;;;;;10317184;28;20708;-26
2021/07/08 05:41:29;;;;;;;5.37;2.50;;;20.10;77.70;;;;;;10324606;28;20595;-25
2021/07/08 05:46:52;;;;;;;4.73;2.90;;;20.10;77.70;;;;;;10324242;28;20202;-26
2021/07/08 05:52:14;;;;;;;5.80;2.80;;;20.10;77.80;;;;;;10316189;28;20223;-29
2021/07/08 05:57:46;;;;;;;3.93;2.70;;;20.10;78.60;;;;;;10319795;28;20594;-25
2021/07/08 06:03:08;;;;;;;5.23;2.70;;;20.00;78.90;;;;;;10306765;28;20247;-26
2021/07/08 06:08:30;;;;;;;5.27;2.70;;;20.10;78.70;;;;;;10322623;28;20360;-26
2021/07/08 06:13:54;;;;;;;6.80;2.83;;;20.10;79.10;;;;;;10322381;28;20222;-25
2021/07/08 06:19:16;;;;;;;4.17;2.60;;;20.10;79.30;;;;;;10319832;28;20224;-25
2021/07/08 06:24:38;;;;;;;5.63;3.20;;;20.10;79.00;;;;;;10323300;28;20566;-27
2021/07/08 06:30:02;;;;;;;7.53;3.63;;;20.10;79.60;;;;;;10302395;28;20223;-26
2021/07/08 06:35:24;;;;;;;4.00;3.03;;;20.10;80.50;;;;;;10313671;28;20222;-30
2021/07/08 06:40:46;;;;;;;4.40;2.80;;;20.00;80.90;;;;;;10318125;28;20231;-26
2021/07/08 06:46:14;;;;;;;4.70;2.93;;;20.10;80.90;;;;;;10317785;28;20191;-29
2021/07/08 06:51:36;;;;;;;4.03;2.60;;;20.20;79.60;;;;;;10322271;28;20689;-26
2021/07/08 06:56:58;;;;;;;4.60;2.23;;;20.20;79.70;;;;;;10322911;28;20219;-26
2021/07/08 07:02:21;;;;;;;4.03;2.30;;;20.30;79.20;;;;;;10328947;28;20226;-23
2021/07/08 07:07:45;;;;;;;3.17;2.33;;;20.30;79.60;;;;;;10318446;28;20207;-25
2021/07/08 07:13:11;;;;;;;3.13;2.40;;;20.30;79.50;;;;;;10330108;28;20227;-26
2021/07/08 07:18:37;;;;;;;5.60;2.33;;;20.30;79.10;;;;;;10329445;28;20218;-26
2021/07/08 07:24:01;;;;;;;4.43;2.30;;;20.30;79.90;;;;;;10328352;28;20199;-28
2021/07/08 07:29:23;;;;;;;3.60;2.33;;;20.30;79.40;;;;;;10328448;28;20219;-23
2021/07/08 07:34:46;;;;;;;3.77;2.20;;;20.30;78.90;;;;;;10327970;28;20239;-25
2021/07/08 07:40:10;;;;;;;3.20;2.27;;;20.40;79.20;;;;;;10317199;28;20301;-30
2021/07/08 07:45:32;;;;;;;3.33;2.07;;;20.40;79.00;;;;;;10326152;28;20222;-26
2021/07/08 07:50:56;;;;;;;7.93;2.67;;;20.40;79.50;;;;;;10288663;28;20219;-29
2021/07/08 07:56:18;;;;;;;3.50;2.23;;;20.40;79.10;;;;;;10288015;28;20706;-25
2021/07/08 08:01:40;;;;;;;4.13;2.00;;;20.40;78.90;;;;;;10289484;28;20242;-27
2021/07/08 08:12:43;;;;;;;7.03;2.40;;;20.40;78.80;;;;;;10321636;28;20574;-25
2021/07/08 08:18:05;;;;;;;3.53;1.97;;;20.50;78.70;;;;;;10326990;28;20215;-26
2021/07/08 08:23:29;;;;;;;3.80;2.23;;;20.40;78.70;;;;;;10326911;28;20238;-25
2021/07/08 08:28:51;;;;;;;4.20;2.40;;;20.50;78.90;;;;;;10326966;28;20230;-24
2021/07/08 08:34:14;;;;;;;5.53;2.63;;;20.50;78.50;;;;;;10304219;28;20226;-26
2021/07/08 08:39:37;;;;;;;5.00;2.17;;;20.50;78.60;;;;;;10325414;28;20231;-25
2021/07/08 08:44:59;;;;;;;3.87;2.20;;;20.60;78.50;;;;;;10325196;28;20192;-25
2021/07/08 08:50:22;;;;;;;5.83;2.47;;;20.60;78.50;;;;;;10323880;28;20725;-27
2021/07/08 08:55:46;;;;;;;3.67;2.33;;;20.60;78.40;;;;;;10320644;28;20220;-25
2021/07/08 09:01:08;;;;;;;4.10;1.90;;;20.60;78.50;;;;;;10304880;28;20223;-25
2021/07/08 09:06:36;;;;;;;5.67;2.37;;;20.60;78.40;;;;;;10315302;28;20576;-25
2021/07/08 09:17:26;;;;;;;6.00;2.27;;;20.60;78.50;;;;;;10493723;28;21108;-27
2021/07/08 09:22:49;;;;;;;3.63;2.20;;;20.60;79.30;;;;;;10470248;28;20217;-28
2021/07/08 09:28:15;;;;;;;3.00;2.10;;;20.50;79.50;;;;;;10455289;28;20200;-26
2021/07/08 09:33:40;;;;;;;3.20;2.03;;;20.50;79.70;;;;;;10486148;28;20653;-28
2021/07/08 09:39:02;;;;;;;3.23;1.90;;;20.40;79.60;;;;;;10486022;28;20212;-28
2021/07/08 09:44:28;;;;;;;2.93;2.03;;;20.40;79.80;;;;;;10485721;28;20196;-29
2021/07/08 09:49:51;;;;;;;4.43;2.37;;;20.50;79.80;;;;;;10485636;28;20220;-28
2021/07/08 09:55:17;;;;;;;5.43;2.30;;;20.40;79.80;;;;;;10473552;28;20604;-31
2021/07/08 10:00:39;;;;;;;3.07;2.67;;;20.40;79.80;;;;;;10456028;28;20235;-26
2021/07/08 10:06:03;;;;;;;4.13;2.60;;;20.40;79.90;;;;;;10484727;28;20219;-29
2021/07/08 10:11:25;;;;;;;2.37;2.17;;;20.40;80.00;;;;;;10484792;28;20212;-28
2021/07/08 10:16:50;;;;;;;3.60;2.30;;;20.50;79.90;;;;;;10484419;28;20220;-30
2021/07/08 10:22:14;;;;;;;11.10;2.80;;;20.40;79.80;;;;;;10484254;28;20221;-27
2021/07/08 10:27:38;;;;;;;37.97;4.63;;;20.50;80.00;;;;;;10501397;28;20193;-27
2021/07/08 10:33:01;;;;;;;84.37;7.83;;;20.40;80.00;;;;;;10516867;28;20223;-28
2021/07/08 10:38:32;;;;;;;133.00;13.80;;;20.40;80.00;;;;;;10456732;28;20200;-27
2021/07/08 10:43:54;;;;;;;122.63;14.03;;;20.40;80.00;;;;;;10467642;23;20240;-29
2021/07/08 10:49:16;;;;;;;102.07;11.23;;;20.40;80.10;;;;;;10447048;28;20572;-28
2021/07/08 10:54:48;;;;;;;79.70;10.57;;;20.40;80.10;;;;;;10405501;28;20604;-30
2021/07/08 11:00:32;;;;;;;91.20;10.27;;;20.50;80.00;;;;;;10389305;28;20237;-31
2021/07/08 11:05:55;;;;;;;53.27;8.10;;;20.40;80.20;;;;;;10402191;28;20216;-32
2021/07/08 11:11:50;;;;;;;57.70;7.40;;;20.50;80.20;;;;;;10415405;28;20240;-29
2021/07/08 11:17:21;;;;;;;55.27;7.87;;;20.50;80.10;;;;;;10395569;28;20855;-32
2021/07/08 11:22:43;;;;;;;42.80;6.27;;;20.40;80.10;;;;;;10400848;28;20224;-29
2021/07/08 11:28:26;;;;;;;41.43;6.53;;;20.40;79.80;;;;;;10455095;28;20635;-30
2021/07/08 11:34:00;;;;;;;36.97;6.20;;;20.50;80.20;;;;;;10452926;28;20235;-28
2021/07/08 11:39:26;;;;;;;23.13;5.00;;;20.50;80.20;;;;;;10390923;28;20194;-29
2021/07/08 11:44:48;;;;;;;31.47;5.67;;;20.40;80.10;;;;;;10372983;28;20777;-29
2021/07/08 11:50:22;;;;;;;21.23;4.57;;;20.50;80.00;;;;;;10410195;28;20565;-30
2021/07/08 11:55:47;;;;;;;17.47;4.57;;;20.40;80.00;;;;;;10413773;28;20210;-30
2021/07/08 12:01:11;;;;;;;15.37;4.37;;;20.40;79.90;;;;;;10405878;28;20233;-30
2021/07/08 12:06:35;;;;;;;11.93;4.00;;;20.50;80.20;;;;;;10406683;28;20550;-28
2021/07/08 12:12:00;;;;;;;14.20;4.50;;;20.40;80.10;;;;;;10377673;28;20221;-29
2021/07/08 12:17:28;;;;;;;17.20;4.77;;;20.50;80.00;;;;;;10372115;28;20242;-29
2021/07/08 12:22:56;;;;;;;16.63;4.17;;;20.40;80.00;;;;;;10398020;28;20214;-32
2021/07/08 12:28:22;;;;;;;12.13;3.70;;;20.40;80.00;;;;;;10412034;28;20198;-29
2021/07/08 12:33:53;;;;;;;10.03;3.83;;;20.50;80.00;;;;;;10391134;28;20218;-30
2021/07/08 12:39:23;;;;;;;5.70;3.40;;;20.40;79.90;;;;;;10398943;28;20205;-28
2021/07/08 12:44:46;;;;;;;7.23;3.17;;;20.40;80.00;;;;;;10380903;28;20566;-30
2021/07/08 12:50:09;;;;;;;7.97;3.07;;;20.40;80.00;;;;;;10369584;28;20297;-30
2021/07/08 12:55:39;;;;;;;10.70;3.50;;;20.40;80.10;;;;;;10369317;28;20218;-28
2021/07/08 13:01:03;;;;;;;8.10;3.10;;;20.40;80.10;;;;;;10381497;28;20222;-28
2021/07/08 13:06:27;;;;;;;7.80;3.13;;;20.40;80.00;;;;;;10384605;28;20193;-28
2021/07/08 13:11:51;;;;;;;12.57;3.50;;;20.40;80.00;;;;;;10409846;28;20225;-28
2021/07/08 13:17:13;;;;;;;5.23;2.67;;;20.40;79.90;;;;;;10410856;28;20214;-31
2021/07/08 13:22:41;;;;;;;5.27;2.87;;;20.50;80.00;;;;;;10397820;28;20218;-29
2021/07/08 13:28:25;;;;;;;10.03;2.73;;;20.50;80.50;;;;;;10409768;28;20202;-36
2021/07/08 13:33:49;;;;;;;9.17;3.27;;;20.50;80.10;;;;;;10369020;28;20738;-28
2021/07/08 13:39:13;;;;;;;5.17;2.40;;;20.50;79.80;;;;;;10377609;28;20190;-29
2021/07/08 13:44:40;;;;;;;5.43;3.00;;;20.50;79.80;;;;;;10400834;28;20569;-29
2021/07/08 13:50:12;;;;;;;8.10;3.03;;;20.50;79.70;;;;;;10405241;28;20217;-28
2021/07/08 13:55:34;;;;;;;6.87;3.13;;;20.50;80.10;;;;;;10383853;28;20221;-28
2021/07/08 14:00:58;;;;;;;6.17;3.27;;;20.50;79.90;;;;;;10382352;28;20223;-29
2021/07/08 14:06:20;;;;;;;8.67;3.20;;;20.40;79.50;;;;;;10377138;28;20661;-27
2021/07/08 14:11:42;;;;;;;7.50;3.10;;;20.50;79.80;;;;;;10410055;28;20210;-29
2021/07/08 14:17:07;;;;;;;5.03;2.63;;;20.50;79.90;;;;;;10417394;28;20213;-31
2021/07/08 14:22:29;;;;;;;6.57;3.13;;;20.40;79.50;;;;;;10392553;28;20504;-30
2021/07/08 14:27:51;;;;;;;5.60;3.00;;;20.40;79.60;;;;;;10381154;28;20193;-29
2021/07/08 14:33:16;;;;;;;8.70;3.27;;;20.40;79.70;;;;;;10414034;28;20221;-27
2021/07/08 14:38:39;;;;;;;6.80;2.70;;;20.40;79.40;;;;;;10406495;28;20661;-28
2021/07/08 14:44:10;;;;;;;4.37;2.70;;;20.40;79.50;;;;;;10416780;28;20226;-29
2021/07/08 14:49:34;;;;;;;4.37;2.43;;;20.40;79.70;;;;;;10416629;28;20699;-31
2021/07/08 14:54:56;;;;;;;4.83;2.63;;;20.40;79.50;;;;;;10416506;28;20305;-30
2021/07/08 15:00:18;;;;;;;3.77;2.07;;;20.40;79.40;;;;;;10414385;28;20225;-29
2021/07/08 15:05:41;;;;;;;7.00;2.70;;;20.40;79.50;;;;;;10411077;28;20200;-29
2021/07/08 15:11:04;;;;;;;3.77;2.20;;;20.40;79.60;;;;;;10390487;28;20225;-30
2021/07/08 15:16:26;;;;;;;3.10;2.33;;;20.40;79.30;;;;;;10374761;28;20312;-29
2021/07/08 15:21:50;;;;;;;3.53;2.33;;;20.40;79.20;;;;;;10391777;28;20210;-29
2021/07/08 15:27:12;;;;;;;4.73;2.27;;;20.40;79.40;;;;;;10413887;28;20193;-31
2021/07/08 15:32:34;;;;;;;3.17;2.20;;;20.40;79.10;;;;;;10383032;28;20214;-27
2021/07/08 15:37:58;;;;;;;4.63;2.63;;;20.40;79.50;;;;;;10372781;28;20229;-28
2021/07/08 15:43:20;;;;;;;3.10;2.30;;;20.40;79.20;;;;;;10386392;28;20234;-29
2021/07/08 15:48:42;;;;;;;4.77;2.10;;;20.40;79.20;;;;;;10372618;28;20194;-28
2021/07/08 15:54:05;;;;;;;4.53;2.60;;;20.40;79.10;;;;;;10371901;28;20218;-30
2021/07/08 15:59:27;;;;;;;3.50;2.37;;;20.40;78.90;;;;;;10395225;28;20190;-29
2021/07/08 16:04:50;;;;;;;2.67;2.00;;;20.40;79.00;;;;;;10413803;28;20197;-29
2021/07/08 16:10:13;;;;;;;4.20;2.20;;;20.40;79.00;;;;;;10413603;28;20213;-29
2021/07/08 16:15:37;;;;;;;3.97;2.20;;;20.40;78.90;;;;;;10413022;28;20304;-28
2021/07/08 16:20:59;;;;;;;3.57;2.47;;;20.40;78.70;;;;;;10411642;28;20625;-29
2021/07/08 16:26:23;;;;;;;2.80;2.13;;;20.40;78.70;;;;;;10385705;28;20227;-31
2021/07/08 16:31:45;;;;;;;2.83;2.30;;;20.40;79.00;;;;;;10371575;28;20222;-30
2021/07/08 16:37:07;;;;;;;3.60;2.33;;;20.40;78.80;;;;;;10382746;28;20221;-28
2021/07/08 16:42:31;;;;;;;3.43;2.43;;;20.40;79.00;;;;;;10370898;28;20598;-28
2021/07/08 16:47:53;;;;;;;4.27;3.00;;;20.50;79.20;;;;;;10370272;28;20199;-28
2021/07/08 16:53:15;;;;;;;2.93;2.00;;;20.50;79.10;;;;;;10392391;28;20240;-27
2021/07/08 16:58:39;;;;;;;3.10;2.30;;;20.40;80.30;;;;;;10411338;28;20565;-29
2021/07/08 17:04:01;;;;;;;5.77;2.17;;;20.40;80.50;;;;;;10370374;28;20210;-28
2021/07/08 17:09:27;;;;;;;2.80;1.70;;;20.40;80.60;;;;;;10379337;28;20209;-28
2021/07/08 17:14:50;;;;;;;4.03;2.10;;;20.40;80.70;;;;;;10372474;28;20360;-28
2021/07/08 17:20:14;;;;;;;4.43;1.90;;;20.40;81.20;;;;;;10387152;28;20594;-29
2021/07/08 17:25:36;;;;;;;2.23;1.77;;;20.40;80.70;;;;;;10369495;28;20205;-29
2021/07/08 17:31:01;;;;;;;5.13;2.20;;;20.40;80.70;;;;;;10407127;28;20221;-29
2021/07/08 17:36:23;;;;;;;2.60;1.97;;;20.40;80.90;;;;;;10404565;28;20240;-28
2021/07/08 17:41:45;;;;;;;3.20;2.20;;;20.40;81.00;;;;;;10403961;28;20331;-28
2021/07/08 17:47:08;;;;;;;4.63;2.30;;;20.40;81.30;;;;;;10395893;28;20709;-29
2021/07/08 17:52:31;;;;;;;2.20;2.00;;;20.40;81.80;;;;;;10377668;28;20215;-30
2021/07/08 17:57:54;;;;;;;2.73;2.23;;;20.40;81.40;;;;;;10436739;23;20315;-24
2021/07/08 18:03:18;;;;;;;2.73;2.20;;;20.30;81.40;;;;;;10456927;28;20204;-23
2021/07/08 18:08:40;;;;;;;3.73;2.10;;;20.40;81.50;;;;;;10396179;28;20592;-23
2021/07/08 18:14:02;;;;;;;3.20;2.30;;;20.40;81.60;;;;;;10399619;28;20218;-24
2021/07/08 18:19:25;;;;;;;2.93;2.40;;;20.30;81.40;;;;;;10383723;28;20543;-24
2021/07/08 18:24:47;;;;;;;4.30;2.10;;;20.40;81.60;;;;;;10382910;28;20221;-24
2021/07/08 18:30:12;;;;;;;2.37;2.03;;;20.40;81.50;;;;;;10406370;28;20695;-26
2021/07/08 18:35:36;;;;;;;3.37;2.57;;;20.40;81.30;;;;;;10388273;28;20241;-24
2021/07/08 18:40:58;;;;;;;3.27;2.30;;;20.40;82.50;;;;;;10397979;28;20293;-24
2021/07/08 18:46:20;;;;;;;5.40;2.73;;;20.40;83.00;;;;;;10374607;28;20218;-24
2021/07/08 18:51:44;;;;;;;3.60;2.67;;;20.50;83.30;;;;;;10375052;28;20195;-24
2021/07/08 18:57:06;;;;;;;4.10;2.90;;;20.50;83.40;;;;;;10373775;28;20226;-25
2021/07/08 19:02:28;;;;;;;4.07;3.20;;;20.50;83.30;;;;;;10374800;28;20206;-24
2021/07/08 19:07:52;;;;;;;4.10;2.87;;;20.50;83.70;;;;;;10375338;28;20221;-24
2021/07/08 19:13:14;;;;;;;4.07;2.60;;;20.40;84.00;;;;;;10390951;28;20209;-24
2021/07/08 19:18:36;;;;;;;3.83;2.90;;;20.40;83.40;;;;;;10413669;28;20306;-24
2021/07/08 19:24:00;;;;;;;5.50;3.20;;;20.50;84.20;;;;;;10377844;28;20201;-24
2021/07/08 19:29:23;;;;;;;3.60;2.63;;;20.40;83.90;;;;;;10371923;28;20573;-24
2021/07/08 19:34:45;;;;;;;4.37;2.70;;;20.40;84.20;;;;;;10378654;28;20226;-23
2021/07/08 19:40:11;;;;;;;5.77;2.80;;;20.40;83.40;;;;;;10388571;28;20559;-23
2021/07/08 19:45:34;;;;;;;3.47;2.60;;;20.40;83.30;;;;;;10372632;28;20218;-24
2021/07/08 19:56:38;;;;;;;3.53;2.70;;;20.40;84.10;;;;;;10387441;28;20592;-26
2021/07/08 20:02:00;;;;;;;3.07;2.60;;;20.40;84.90;;;;;;10399073;28;20205;-24
2021/07/08 20:07:22;;;;;;;2.97;2.10;;;20.30;85.00;;;;;;10394030;28;20214;-25
2021/07/08 20:12:45;;;;;;;2.57;2.37;;;20.30;85.00;;;;;;10396134;28;20281;-26
2021/07/08 20:18:08;;;;;;;3.50;2.37;;;20.30;85.20;;;;;;10375485;28;20214;-23
2021/07/08 20:23:30;;;;;;;4.03;2.77;;;20.30;85.20;;;;;;10397325;28;20202;-24
2021/07/08 20:28:54;;;;;;;3.93;2.27;;;20.30;85.10;;;;;;10392127;28;20200;-24
2021/07/08 20:34:16;;;;;;;2.33;2.00;;;20.30;85.10;;;;;;10382566;28;20218;-23
2021/07/08 20:39:38;;;;;;;3.33;2.17;;;20.30;85.10;;;;;;10382371;28;20197;-25
2021/07/08 20:45:01;;;;;;;4.43;2.20;;;20.30;85.90;;;;;;10400323;28;20216;-24
2021/07/08 20:50:24;;;;;;;7.67;2.83;;;20.30;85.30;;;;;;10410985;28;20198;-23
2021/07/08 20:55:46;;;;;;;3.37;2.70;;;20.30;85.00;;;;;;10392267;28;20222;-24
2021/07/08 21:01:09;;;;;;;3.97;3.10;;;20.30;85.10;;;;;;10369899;28;20191;-24
2021/07/08 21:06:32;;;;;;;4.60;2.87;;;20.30;85.00;;;;;;10370289;28;20550;-25
2021/07/08 21:11:54;;;;;;;4.27;2.97;;;20.30;84.80;;;;;;10375220;28;20208;-26
2021/07/08 21:17:17;;;;;;;5.00;2.97;;;20.30;84.90;;;;;;10383214;28;20218;-23
2021/07/08 21:22:40;;;;;;;5.20;3.13;;;20.30;85.10;;;;;;10386655;28;20199;-24
2021/07/08 21:28:03;;;;;;;5.30;3.40;;;20.30;85.30;;;;;;10369832;28;20229;-24
2021/07/08 21:33:27;;;;;;;4.80;3.40;;;20.30;85.20;;;;;;10370396;28;20206;-22
2021/07/08 21:38:49;;;;;;;3.83;3.10;;;20.30;85.40;;;;;;10399512;28;20224;-24
2021/07/08 21:44:14;;;;;;;6.60;3.40;;;20.30;85.30;;;;;;10409513;28;20494;-23
2021/07/08 21:49:37;;;;;;;3.87;3.50;;;20.30;85.20;;;;;;10399391;28;20226;-25
2021/07/08 21:55:00;;;;;;;4.83;3.60;;;20.30;85.40;;;;;;10369796;28;20233;-24
2021/07/08 22:00:22;;;;;;;7.50;3.17;;;20.20;85.30;;;;;;10368899;28;20202;-25
2021/07/08 22:05:45;;;;;;;3.47;3.17;;;20.30;85.50;;;;;;10388630;28;20214;-24
2021/07/08 22:11:07;;;;;;;5.03;3.67;;;20.30;85.60;;;;;;10401632;28;20204;-24
2021/07/08 22:16:29;;;;;;;3.67;3.20;;;20.30;85.50;;;;;;10368152;28;20734;-23
2021/07/08 22:21:53;;;;;;;4.97;3.23;;;20.20;85.50;;;;;;10387537;28;20194;-24
2021/07/08 22:27:15;;;;;;;3.73;3.43;;;20.30;85.60;;;;;;10375086;28;20214;-25
2021/07/08 22:32:37;;;;;;;4.27;3.10;;;20.30;85.60;;;;;;10375750;28;20678;-23
2021/07/08 22:38:01;;;;;;;3.80;3.50;;;20.30;85.60;;;;;;10407398;28;20232;-24
2021/07/08 22:43:23;;;;;;;4.80;3.80;;;20.30;85.60;;;;;;10389079;28;20582;-24
2021/07/08 22:48:45;;;;;;;5.77;3.57;;;20.20;85.70;;;;;;10387553;28;20222;-25
2021/07/08 22:54:10;;;;;;;3.90;3.27;;;20.20;85.40;;;;;;10415510;28;20213;-24
2021/07/08 22:59:32;;;;;;;4.50;3.90;;;20.20;85.40;;;;;;10414560;28;20216;-23
2021/07/08 23:04:54;;;;;;;3.93;3.53;;;20.20;85.40;;;;;;10414765;28;20222;-23
2021/07/08 23:10:18;;;;;;;4.00;3.33;;;20.20;85.50;;;;;;10413489;28;20604;-24
2021/07/08 23:15:40;;;;;;;7.40;3.17;;;20.20;85.40;;;;;;10408732;28;20222;-24
2021/07/08 23:21:02;;;;;;;4.20;3.47;;;20.30;85.20;;;;;;10383963;28;20236;-24
2021/07/08 23:26:26;;;;;;;4.30;3.87;;;20.30;85.20;;;;;;10414268;28;20220;-25
2021/07/08 23:31:48;;;;;;;5.47;3.63;;;20.20;85.20;;;;;;10387727;28;20206;-23
2021/07/08 23:37:11;;;;;;;4.70;3.80;;;20.20;85.90;;;;;;10373505;28;20792;-24
